Terminal Aerodrome Forecast
Issued by NWS

Home | Current Version | Previous Version | Text Only | Print | Product List | Glossary On
Versions: 1 2 3 4 5 6 7 8 9 10 11 12 13 14 15 16
000
FTUS42 KMLB 140500
TAFLEE
TAF
KLEE 140535Z 1406/1506 15003KT P6SM SCT250
     FM141400 19004KT P6SM SCT030 BKN250
     FM142000 18007KT P6SM VCTS SCT040CB BKN250
     FM150200 21003KT P6SM SCT040 BKN120=

USA.gov is the U.S. government's official web portal to all federal, state and local government web resources and services.